sensor_id;sensor_type;location;lat;lon;timestamp;P1;durP1;ratioP1;P2;durP2;ratioP2
2259;SDS011;333;48.800;9.530;2023-03-09T00:01:34;3.80;;;2.47;;
2259;SDS011;333;48.800;9.530;2023-03-09T00:04:01;1.60;;;1.50;;
2259;SDS011;333;48.800;9.530;2023-03-09T00:06:28;1.90;;;1.80;;
2259;SDS011;333;48.800;9.530;2023-03-09T00:08:56;2.67;;;1.60;;
2259;SDS011;333;48.800;9.530;2023-03-09T00:11:23;3.60;;;1.50;;
2259;SDS011;333;48.800;9.530;2023-03-09T00:13:51;1.67;;;1.57;;
2259;SDS011;333;48.800;9.530;2023-03-09T00:16:19;3.20;;;2.40;;
2259;SDS011;333;48.800;9.530;2023-03-09T00:18:48;2.80;;;2.13;;
2259;SDS011;333;48.800;9.530;2023-03-09T00:21:16;1.67;;;1.50;;
2259;SDS011;333;48.800;9.530;2023-03-09T00:23:59;3.90;;;1.80;;
2259;SDS011;333;48.800;9.530;2023-03-09T00:26:26;2.43;;;1.60;;
2259;SDS011;333;48.800;9.530;2023-03-09T00:28:54;2.40;;;1.47;;
2259;SDS011;333;48.800;9.530;2023-03-09T00:31:21;2.83;;;1.73;;
2259;SDS011;333;48.800;9.530;2023-03-09T00:33:49;2.77;;;1.57;;
2259;SDS011;333;48.800;9.530;2023-03-09T00:36:17;3.07;;;1.50;;
2259;SDS011;333;48.800;9.530;2023-03-09T00:38:48;1.60;;;1.50;;
2259;SDS011;333;48.800;9.530;2023-03-09T00:41:16;1.33;;;1.23;;
2259;SDS011;333;48.800;9.530;2023-03-09T00:43:43;2.63;;;1.23;;
2259;SDS011;333;48.800;9.530;2023-03-09T00:46:10;2.77;;;1.20;;
2259;SDS011;333;48.800;9.530;2023-03-09T00:48:37;1.37;;;1.27;;
2259;SDS011;333;48.800;9.530;2023-03-09T00:51:06;1.90;;;1.10;;
2259;SDS011;333;48.800;9.530;2023-03-09T00:53:34;1.73;;;0.90;;
2259;SDS011;333;48.800;9.530;2023-03-09T00:56:01;1.27;;;0.70;;
2259;SDS011;333;48.800;9.530;2023-03-09T00:58:29;2.30;;;0.83;;
2259;SDS011;333;48.800;9.530;2023-03-09T01:00:56;1.30;;;0.90;;
2259;SDS011;333;48.800;9.530;2023-03-09T01:03:23;1.40;;;1.10;;
2259;SDS011;333;48.800;9.530;2023-03-09T01:05:50;4.20;;;0.90;;
2259;SDS011;333;48.800;9.530;2023-03-09T01:08:19;0.70;;;0.57;;
2259;SDS011;333;48.800;9.530;2023-03-09T01:10:46;2.47;;;0.93;;
2259;SDS011;333;48.800;9.530;2023-03-09T01:13:13;1.23;;;0.50;;
2259;SDS011;333;48.800;9.530;2023-03-09T01:15:40;0.97;;;0.87;;
2259;SDS011;333;48.800;9.530;2023-03-09T01:18:07;1.30;;;0.70;;
2259;SDS011;333;48.800;9.530;2023-03-09T01:20:35;0.53;;;0.40;;
2259;SDS011;333;48.800;9.530;2023-03-09T01:23:02;0.83;;;0.40;;
2259;SDS011;333;48.800;9.530;2023-03-09T01:25:31;0.40;;;0.30;;
2259;SDS011;333;48.800;9.530;2023-03-09T01:27:58;3.20;;;0.73;;
2259;SDS011;333;48.800;9.530;2023-03-09T01:30:25;3.70;;;0.67;;
2259;SDS011;333;48.800;9.530;2023-03-09T01:32:52;0.70;;;0.47;;
2259;SDS011;333;48.800;9.530;2023-03-09T01:35:19;0.60;;;0.40;;
2259;SDS011;333;48.800;9.530;2023-03-09T01:37:47;1.07;;;0.40;;
2259;SDS011;333;48.800;9.530;2023-03-09T01:40:15;0.40;;;0.40;;
2259;SDS011;333;48.800;9.530;2023-03-09T01:42:44;0.50;;;0.37;;
2259;SDS011;333;48.800;9.530;2023-03-09T01:48:05;0.47;;;0.40;;
2259;SDS011;333;48.800;9.530;2023-03-09T01:50:34;0.60;;;0.30;;
2259;SDS011;333;48.800;9.530;2023-03-09T01:53:04;0.40;;;0.20;;
2259;SDS011;333;48.800;9.530;2023-03-09T01:55:34;2.03;;;0.27;;
2259;SDS011;333;48.800;9.530;2023-03-09T01:58:05;0.70;;;0.50;;
2259;SDS011;333;48.800;9.530;2023-03-09T02:00:33;0.30;;;0.20;;
2259;SDS011;333;48.800;9.530;2023-03-09T02:03:03;0.37;;;0.27;;
2259;SDS011;333;48.800;9.530;2023-03-09T02:05:31;1.77;;;0.43;;
2259;SDS011;333;48.800;9.530;2023-03-09T02:08:00;0.73;;;0.33;;
2259;SDS011;333;48.800;9.530;2023-03-09T02:10:28;0.50;;;0.40;;
2259;SDS011;333;48.800;9.530;2023-03-09T02:12:57;1.47;;;0.40;;
2259;SDS011;333;48.800;9.530;2023-03-09T02:15:27;0.90;;;0.30;;
2259;SDS011;333;48.800;9.530;2023-03-09T02:17:54;0.90;;;0.40;;
2259;SDS011;333;48.800;9.530;2023-03-09T02:20:22;0.70;;;0.40;;
2259;SDS011;333;48.800;9.530;2023-03-09T02:22:51;0.53;;;0.30;;
2259;SDS011;333;48.800;9.530;2023-03-09T02:25:21;0.40;;;0.40;;
2259;SDS011;333;48.800;9.530;2023-03-09T02:27:51;0.43;;;0.30;;
2259;SDS011;333;48.800;9.530;2023-03-09T02:30:19;0.40;;;0.20;;
2259;SDS011;333;48.800;9.530;2023-03-09T02:32:46;0.77;;;0.30;;
2259;SDS011;333;48.800;9.530;2023-03-09T02:35:13;0.40;;;0.30;;
2259;SDS011;333;48.800;9.530;2023-03-09T02:37:41;0.70;;;0.30;;
2259;SDS011;333;48.800;9.530;2023-03-09T02:40:10;1.07;;;0.40;;
2259;SDS011;333;48.800;9.530;2023-03-09T02:42:41;0.60;;;0.20;;
2259;SDS011;333;48.800;9.530;2023-03-09T02:45:11;0.50;;;0.30;;
2259;SDS011;333;48.800;9.530;2023-03-09T02:47:39;0.30;;;0.20;;
2259;SDS011;333;48.800;9.530;2023-03-09T02:50:07;0.57;;;0.40;;
2259;SDS011;333;48.800;9.530;2023-03-09T02:52:34;1.50;;;0.40;;
2259;SDS011;333;48.800;9.530;2023-03-09T02:55:02;0.73;;;0.37;;
2259;SDS011;333;48.800;9.530;2023-03-09T02:57:29;0.50;;;0.30;;
2259;SDS011;333;48.800;9.530;2023-03-09T02:59:56;0.70;;;0.30;;
2259;SDS011;333;48.800;9.530;2023-03-09T03:02:25;0.40;;;0.40;;
2259;SDS011;333;48.800;9.530;2023-03-09T03:04:52;0.40;;;0.30;;
2259;SDS011;333;48.800;9.530;2023-03-09T03:07:20;0.40;;;0.30;;
2259;SDS011;333;48.800;9.530;2023-03-09T03:09:47;1.50;;;0.30;;
2259;SDS011;333;48.800;9.530;2023-03-09T03:12:14;0.77;;;0.30;;
2259;SDS011;333;48.800;9.530;2023-03-09T03:14:41;0.53;;;0.30;;
2259;SDS011;333;48.800;9.530;2023-03-09T03:17:09;0.63;;;0.30;;
2259;SDS011;333;48.800;9.530;2023-03-09T03:19:37;1.07;;;0.30;;
2259;SDS011;333;48.800;9.530;2023-03-09T03:22:05;1.27;;;0.40;;
2259;SDS011;333;48.800;9.530;2023-03-09T03:24:34;0.40;;;0.20;;
2259;SDS011;333;48.800;9.530;2023-03-09T03:27:02;0.50;;;0.40;;
2259;SDS011;333;48.800;9.530;2023-03-09T03:29:29;0.43;;;0.37;;
2259;SDS011;333;48.800;9.530;2023-03-09T03:31:56;0.60;;;0.40;;
2259;SDS011;333;48.800;9.530;2023-03-09T03:34:24;1.30;;;1.03;;
2259;SDS011;333;48.800;9.530;2023-03-09T03:36:53;0.60;;;0.50;;
2259;SDS011;333;48.800;9.530;2023-03-09T03:39:20;0.40;;;0.40;;
2259;SDS011;333;48.800;9.530;2023-03-09T03:41:47;2.20;;;0.80;;
2259;SDS011;333;48.800;9.530;2023-03-09T03:44:15;1.47;;;0.40;;
2259;SDS011;333;48.800;9.530;2023-03-09T03:46:42;0.93;;;0.40;;
2259;SDS011;333;48.800;9.530;2023-03-09T03:49:09;0.50;;;0.50;;
2259;SDS011;333;48.800;9.530;2023-03-09T03:51:36;0.40;;;0.40;;
2259;SDS011;333;48.800;9.530;2023-03-09T03:54:05;0.90;;;0.40;;
2259;SDS011;333;48.800;9.530;2023-03-09T03:56:32;0.80;;;0.50;;
2259;SDS011;333;48.800;9.530;2023-03-09T03:58:59;0.70;;;0.60;;
2259;SDS011;333;48.800;9.530;2023-03-09T04:01:26;0.30;;;0.30;;
2259;SDS011;333;48.800;9.530;2023-03-09T04:03:53;0.40;;;0.30;;
2259;SDS011;333;48.800;9.530;2023-03-09T04:06:21;0.40;;;0.30;;
2259;SDS011;333;48.800;9.530;2023-03-09T04:08:48;0.97;;;0.30;;
2259;SDS011;333;48.800;9.530;2023-03-09T04:11:16;1.30;;;0.40;;
2259;SDS011;333;48.800;9.530;2023-03-09T04:13:46;0.40;;;0.30;;
2259;SDS011;333;48.800;9.530;2023-03-09T04:16:13;0.50;;;0.50;;
2259;SDS011;333;48.800;9.530;2023-03-09T04:18:40;0.53;;;0.40;;
2259;SDS011;333;48.800;9.530;2023-03-09T04:21:07;0.60;;;0.47;;
2259;SDS011;333;48.800;9.530;2023-03-09T04:23:35;4.40;;;0.80;;
2259;SDS011;333;48.800;9.530;2023-03-09T04:26:03;2.00;;;0.70;;
2259;SDS011;333;48.800;9.530;2023-03-09T04:28:32;0.40;;;0.30;;
2259;SDS011;333;48.800;9.530;2023-03-09T04:30:59;2.53;;;0.70;;
2259;SDS011;333;48.800;9.530;2023-03-09T04:33:27;1.60;;;0.50;;
2259;SDS011;333;48.800;9.530;2023-03-09T04:35:54;1.27;;;0.67;;
2259;SDS011;333;48.800;9.530;2023-03-09T04:38:21;1.50;;;0.70;;
2259;SDS011;333;48.800;9.530;2023-03-09T04:40:49;1.70;;;0.70;;
2259;SDS011;333;48.800;9.530;2023-03-09T04:43:16;4.40;;;1.23;;
2259;SDS011;333;48.800;9.530;2023-03-09T04:45:45;0.90;;;0.70;;
2259;SDS011;333;48.800;9.530;2023-03-09T04:48:12;2.57;;;0.93;;
2259;SDS011;333;48.800;9.530;2023-03-09T04:50:39;1.83;;;0.77;;
2259;SDS011;333;48.800;9.530;2023-03-09T04:53:06;1.77;;;1.43;;
2259;SDS011;333;48.800;9.530;2023-03-09T04:55:33;2.43;;;1.13;;
2259;SDS011;333;48.800;9.530;2023-03-09T04:58:02;5.67;;;1.47;;
2259;SDS011;333;48.800;9.530;2023-03-09T05:00:29;1.97;;;1.00;;
2259;SDS011;333;48.800;9.530;2023-03-09T05:02:58;3.20;;;1.17;;
2259;SDS011;333;48.800;9.530;2023-03-09T05:05:26;4.07;;;1.00;;
2259;SDS011;333;48.800;9.530;2023-03-09T05:07:53;1.50;;;1.00;;
2259;SDS011;333;48.800;9.530;2023-03-09T05:10:20;6.10;;;1.80;;
2259;SDS011;333;48.800;9.530;2023-03-09T05:12:47;4.43;;;1.67;;
2259;SDS011;333;48.800;9.530;2023-03-09T05:15:14;3.67;;;1.80;;
2259;SDS011;333;48.800;9.530;2023-03-09T05:17:42;1.63;;;1.07;;
2259;SDS011;333;48.800;9.530;2023-03-09T05:20:11;6.13;;;1.50;;
2259;SDS011;333;48.800;9.530;2023-03-09T05:22:39;4.77;;;1.73;;
2259;SDS011;333;48.800;9.530;2023-03-09T05:25:07;1.47;;;1.07;;
2259;SDS011;333;48.800;9.530;2023-03-09T05:27:34;3.40;;;1.70;;
2259;SDS011;333;48.800;9.530;2023-03-09T05:30:01;8.03;;;1.90;;
2259;SDS011;333;48.800;9.530;2023-03-09T05:32:28;2.27;;;1.00;;
2259;SDS011;333;48.800;9.530;2023-03-09T05:34:56;3.30;;;1.63;;
2259;SDS011;333;48.800;9.530;2023-03-09T05:37:25;3.13;;;1.97;;
2259;SDS011;333;48.800;9.530;2023-03-09T05:39:52;3.33;;;1.40;;
2259;SDS011;333;48.800;9.530;2023-03-09T05:42:20;2.60;;;2.37;;
2259;SDS011;333;48.800;9.530;2023-03-09T05:44:47;2.90;;;1.23;;
2259;SDS011;333;48.800;9.530;2023-03-09T05:47:14;4.63;;;1.30;;
2259;SDS011;333;48.800;9.530;2023-03-09T05:49:41;5.00;;;1.67;;
2259;SDS011;333;48.800;9.530;2023-03-09T05:52:08;2.33;;;1.33;;
2259;SDS011;333;48.800;9.530;2023-03-09T05:54:37;3.17;;;1.90;;
2259;SDS011;333;48.800;9.530;2023-03-09T05:57:04;3.60;;;1.87;;
2259;SDS011;333;48.800;9.530;2023-03-09T05:59:31;5.03;;;2.27;;
2259;SDS011;333;48.800;9.530;2023-03-09T06:01:59;3.27;;;2.20;;
2259;SDS011;333;48.800;9.530;2023-03-09T06:04:26;3.90;;;2.13;;
2259;SDS011;333;48.800;9.530;2023-03-09T06:06:53;3.03;;;1.77;;
2259;SDS011;333;48.800;9.530;2023-03-09T06:09:20;4.50;;;1.67;;
2259;SDS011;333;48.800;9.530;2023-03-09T06:11:49;3.57;;;2.10;;
2259;SDS011;333;48.800;9.530;2023-03-09T06:14:16;3.63;;;1.60;;
2259;SDS011;333;48.800;9.530;2023-03-09T06:16:43;3.93;;;2.40;;
2259;SDS011;333;48.800;9.530;2023-03-09T06:19:10;1.70;;;1.60;;
2259;SDS011;333;48.800;9.530;2023-03-09T06:21:38;5.60;;;2.00;;
2259;SDS011;333;48.800;9.530;2023-03-09T06:24:05;6.73;;;1.57;;
2259;SDS011;333;48.800;9.530;2023-03-09T06:26:33;2.60;;;1.53;;
2259;SDS011;333;48.800;9.530;2023-03-09T06:29:01;2.47;;;1.53;;
2259;SDS011;333;48.800;9.530;2023-03-09T06:31:29;4.97;;;2.03;;
2259;SDS011;333;48.800;9.530;2023-03-09T06:33:57;2.47;;;1.30;;
2259;SDS011;333;48.800;9.530;2023-03-09T06:36:24;4.20;;;1.90;;
2259;SDS011;333;48.800;9.530;2023-03-09T06:38:51;3.53;;;2.43;;
2259;SDS011;333;48.800;9.530;2023-03-09T06:41:18;3.33;;;1.50;;
2259;SDS011;333;48.800;9.530;2023-03-09T06:43:54;5.50;;;2.50;;
2259;SDS011;333;48.800;9.530;2023-03-09T06:46:22;5.60;;;1.93;;
2259;SDS011;333;48.800;9.530;2023-03-09T06:48:50;4.03;;;1.40;;
2259;SDS011;333;48.800;9.530;2023-03-09T06:51:17;4.33;;;2.00;;
2259;SDS011;333;48.800;9.530;2023-03-09T06:53:44;3.60;;;1.90;;
2259;SDS011;333;48.800;9.530;2023-03-09T06:56:12;4.50;;;2.00;;
2259;SDS011;333;48.800;9.530;2023-03-09T06:58:39;2.73;;;1.30;;
2259;SDS011;333;48.800;9.530;2023-03-09T07:01:07;5.40;;;1.83;;
2259;SDS011;333;48.800;9.530;2023-03-09T07:03:36;3.60;;;1.33;;
2259;SDS011;333;48.800;9.530;2023-03-09T07:06:03;7.07;;;1.70;;
2259;SDS011;333;48.800;9.530;2023-03-09T07:08:30;2.00;;;1.20;;
2259;SDS011;333;48.800;9.530;2023-03-09T07:10:58;3.57;;;1.97;;
2259;SDS011;333;48.800;9.530;2023-03-09T07:13:26;1.70;;;1.20;;
2259;SDS011;333;48.800;9.530;2023-03-09T07:15:54;2.63;;;1.70;;
2259;SDS011;333;48.800;9.530;2023-03-09T07:18:21;4.53;;;1.60;;
2259;SDS011;333;48.800;9.530;2023-03-09T07:20:50;4.57;;;1.67;;
2259;SDS011;333;48.800;9.530;2023-03-09T07:23:17;1.40;;;1.20;;
2259;SDS011;333;48.800;9.530;2023-03-09T07:25:44;2.03;;;1.67;;
2259;SDS011;333;48.800;9.530;2023-03-09T07:28:12;3.20;;;1.30;;
2259;SDS011;333;48.800;9.530;2023-03-09T07:30:39;8.17;;;1.83;;
2259;SDS011;333;48.800;9.530;2023-03-09T07:33:06;4.70;;;1.70;;
2259;SDS011;333;48.800;9.530;2023-03-09T07:35:37;6.03;;;2.30;;
2259;SDS011;333;48.800;9.530;2023-03-09T07:38:05;2.43;;;1.90;;
2259;SDS011;333;48.800;9.530;2023-03-09T07:40:33;2.90;;;1.43;;
2259;SDS011;333;48.800;9.530;2023-03-09T07:43:00;3.53;;;2.17;;
2259;SDS011;333;48.800;9.530;2023-03-09T07:45:27;1.77;;;1.63;;
2259;SDS011;333;48.800;9.530;2023-03-09T07:47:54;4.83;;;1.70;;
2259;SDS011;333;48.800;9.530;2023-03-09T07:50:21;4.63;;;1.30;;
2259;SDS011;333;48.800;9.530;2023-03-09T07:52:48;3.27;;;1.73;;
2259;SDS011;333;48.800;9.530;2023-03-09T07:55:17;2.60;;;1.40;;
2259;SDS011;333;48.800;9.530;2023-03-09T07:57:47;4.37;;;1.80;;
2259;SDS011;333;48.800;9.530;2023-03-09T08:00:15;2.40;;;1.80;;
2259;SDS011;333;48.800;9.530;2023-03-09T08:02:47;2.13;;;1.37;;
2259;SDS011;333;48.800;9.530;2023-03-09T08:05:15;3.10;;;1.07;;
2259;SDS011;333;48.800;9.530;2023-03-09T08:07:43;6.43;;;2.10;;
2259;SDS011;333;48.800;9.530;2023-03-09T08:10:12;2.53;;;1.80;;
2259;SDS011;333;48.800;9.530;2023-03-09T08:12:41;3.63;;;1.63;;
2259;SDS011;333;48.800;9.530;2023-03-09T08:15:09;6.33;;;1.37;;
2259;SDS011;333;48.800;9.530;2023-03-09T08:17:36;4.40;;;1.53;;
2259;SDS011;333;48.800;9.530;2023-03-09T08:20:05;4.87;;;1.67;;
2259;SDS011;333;48.800;9.530;2023-03-09T08:22:34;4.50;;;1.60;;
2259;SDS011;333;48.800;9.530;2023-03-09T08:25:01;2.70;;;1.30;;
2259;SDS011;333;48.800;9.530;2023-03-09T08:27:28;8.80;;;1.70;;
2259;SDS011;333;48.800;9.530;2023-03-09T08:29:57;1.77;;;1.30;;
2259;SDS011;333;48.800;9.530;2023-03-09T08:32:24;4.73;;;1.60;;
2259;SDS011;333;48.800;9.530;2023-03-09T08:34:53;1.90;;;1.23;;
2259;SDS011;333;48.800;9.530;2023-03-09T08:37:21;2.50;;;1.20;;
2259;SDS011;333;48.800;9.530;2023-03-09T08:39:49;3.30;;;1.83;;
2259;SDS011;333;48.800;9.530;2023-03-09T08:42:17;9.57;;;1.50;;
2259;SDS011;333;48.800;9.530;2023-03-09T08:44:44;1.60;;;1.10;;
2259;SDS011;333;48.800;9.530;2023-03-09T08:47:13;3.50;;;1.37;;
2259;SDS011;333;48.800;9.530;2023-03-09T08:49:40;3.77;;;1.10;;
2259;SDS011;333;48.800;9.530;2023-03-09T08:52:08;1.53;;;0.83;;
2259;SDS011;333;48.800;9.530;2023-03-09T08:54:35;1.03;;;0.63;;
2259;SDS011;333;48.800;9.530;2023-03-09T08:57:02;3.50;;;1.10;;
2259;SDS011;333;48.800;9.530;2023-03-09T08:59:30;1.90;;;0.97;;
2259;SDS011;333;48.800;9.530;2023-03-09T09:01:57;4.10;;;0.80;;
2259;SDS011;333;48.800;9.530;2023-03-09T09:04:25;1.70;;;0.97;;
2259;SDS011;333;48.800;9.530;2023-03-09T09:06:53;1.67;;;1.17;;
2259;SDS011;333;48.800;9.530;2023-03-09T09:09:21;2.20;;;0.87;;
2259;SDS011;333;48.800;9.530;2023-03-09T09:11:48;3.40;;;1.20;;
2259;SDS011;333;48.800;9.530;2023-03-09T09:14:15;4.77;;;1.40;;
2259;SDS011;333;48.800;9.530;2023-03-09T09:16:42;2.10;;;1.30;;
2259;SDS011;333;48.800;9.530;2023-03-09T09:19:10;3.20;;;0.70;;
2259;SDS011;333;48.800;9.530;2023-03-09T09:21:38;1.37;;;0.90;;
2259;SDS011;333;48.800;9.530;2023-03-09T09:24:05;1.00;;;0.90;;
2259;SDS011;333;48.800;9.530;2023-03-09T09:26:33;1.80;;;0.70;;
2259;SDS011;333;48.800;9.530;2023-03-09T09:29:00;1.53;;;0.70;;
2259;SDS011;333;48.800;9.530;2023-03-09T09:31:27;3.03;;;1.13;;
2259;SDS011;333;48.800;9.530;2023-03-09T09:33:54;1.63;;;0.80;;
2259;SDS011;333;48.800;9.530;2023-03-09T09:36:22;1.90;;;1.20;;
2259;SDS011;333;48.800;9.530;2023-03-09T09:38:51;1.60;;;1.10;;
2259;SDS011;333;48.800;9.530;2023-03-09T09:41:19;5.60;;;0.97;;
2259;SDS011;333;48.800;9.530;2023-03-09T09:43:48;4.43;;;0.80;;
2259;SDS011;333;48.800;9.530;2023-03-09T09:46:16;1.40;;;0.70;;
2259;SDS011;333;48.800;9.530;2023-03-09T09:48:45;4.13;;;0.70;;
2259;SDS011;333;48.800;9.530;2023-03-09T09:51:15;1.00;;;0.80;;
2259;SDS011;333;48.800;9.530;2023-03-09T09:53:48;1.73;;;1.00;;
2259;SDS011;333;48.800;9.530;2023-03-09T09:56:19;1.97;;;1.03;;
2259;SDS011;333;48.800;9.530;2023-03-09T09:58:49;4.80;;;0.90;;
2259;SDS011;333;48.800;9.530;2023-03-09T10:01:19;1.30;;;0.70;;
2259;SDS011;333;48.800;9.530;2023-03-09T10:03:48;4.53;;;1.00;;
2259;SDS011;333;48.800;9.530;2023-03-09T10:06:16;1.90;;;0.90;;
2259;SDS011;333;48.800;9.530;2023-03-09T10:08:46;2.20;;;1.10;;
2259;SDS011;333;48.800;9.530;2023-03-09T10:11:16;0.80;;;0.60;;
2259;SDS011;333;48.800;9.530;2023-03-09T10:13:49;2.47;;;1.10;;
2259;SDS011;333;48.800;9.530;2023-03-09T10:16:18;1.63;;;0.60;;
2259;SDS011;333;48.800;9.530;2023-03-09T10:18:50;1.43;;;0.73;;
2259;SDS011;333;48.800;9.530;2023-03-09T10:21:19;0.90;;;0.73;;
2259;SDS011;333;48.800;9.530;2023-03-09T10:23:49;2.37;;;0.97;;
2259;SDS011;333;48.800;9.530;2023-03-09T10:26:30;2.07;;;0.70;;
2259;SDS011;333;48.800;9.530;2023-03-09T10:29:02;2.70;;;0.70;;
2259;SDS011;333;48.800;9.530;2023-03-09T10:31:31;1.70;;;0.80;;
2259;SDS011;333;48.800;9.530;2023-03-09T10:34:04;3.37;;;0.60;;
2259;SDS011;333;48.800;9.530;2023-03-09T10:36:33;1.00;;;0.90;;
2259;SDS011;333;48.800;9.530;2023-03-09T10:39:07;2.97;;;0.80;;
2259;SDS011;333;48.800;9.530;2023-03-09T10:41:36;1.47;;;0.97;;
2259;SDS011;333;48.800;9.530;2023-03-09T10:44:05;8.53;;;0.90;;
2259;SDS011;333;48.800;9.530;2023-03-09T10:46:52;1.00;;;0.70;;
2259;SDS011;333;48.800;9.530;2023-03-09T10:49:19;1.00;;;0.53;;
2259;SDS011;333;48.800;9.530;2023-03-09T10:51:53;1.60;;;0.80;;
2259;SDS011;333;48.800;9.530;2023-03-09T10:54:21;1.83;;;0.97;;
2259;SDS011;333;48.800;9.530;2023-03-09T10:56:49;0.83;;;0.60;;
2259;SDS011;333;48.800;9.530;2023-03-09T10:59:19;1.93;;;0.90;;
2259;SDS011;333;48.800;9.530;2023-03-09T11:01:48;0.57;;;0.50;;
2259;SDS011;333;48.800;9.530;2023-03-09T11:07:17;1.23;;;1.00;;
2259;SDS011;333;48.800;9.530;2023-03-09T11:09:48;3.30;;;1.20;;
2259;SDS011;333;48.800;9.530;2023-03-09T11:12:18;2.77;;;1.20;;
2259;SDS011;333;48.800;9.530;2023-03-09T11:14:50;1.93;;;1.10;;
2259;SDS011;333;48.800;9.530;2023-03-09T11:17:29;3.60;;;1.60;;
2259;SDS011;333;48.800;9.530;2023-03-09T11:20:13;2.23;;;0.93;;
2259;SDS011;333;48.800;9.530;2023-03-09T11:22:45;4.93;;;1.00;;
2259;SDS011;333;48.800;9.530;2023-03-09T11:25:13;1.97;;;0.87;;
2259;SDS011;333;48.800;9.530;2023-03-09T11:27:42;2.53;;;1.43;;
2259;SDS011;333;48.800;9.530;2023-03-09T11:30:15;2.00;;;1.07;;
2259;SDS011;333;48.800;9.530;2023-03-09T11:32:42;2.33;;;1.37;;
2259;SDS011;333;48.800;9.530;2023-03-09T11:35:11;0.90;;;0.70;;
2259;SDS011;333;48.800;9.530;2023-03-09T11:37:40;3.10;;;1.17;;
2259;SDS011;333;48.800;9.530;2023-03-09T11:40:10;2.50;;;0.80;;
2259;SDS011;333;48.800;9.530;2023-03-09T11:42:39;1.60;;;0.87;;
2259;SDS011;333;48.800;9.530;2023-03-09T11:45:09;2.53;;;0.77;;
2259;SDS011;333;48.800;9.530;2023-03-09T11:47:41;2.70;;;1.27;;
2259;SDS011;333;48.800;9.530;2023-03-09T11:50:11;2.40;;;0.83;;
2259;SDS011;333;48.800;9.530;2023-03-09T11:52:40;2.80;;;1.27;;
2259;SDS011;333;48.800;9.530;2023-03-09T11:55:11;1.83;;;0.90;;
2259;SDS011;333;48.800;9.530;2023-03-09T11:57:40;2.83;;;0.80;;
2259;SDS011;333;48.800;9.530;2023-03-09T12:00:11;1.90;;;1.33;;
2259;SDS011;333;48.800;9.530;2023-03-09T12:02:45;2.23;;;1.00;;
2259;SDS011;333;48.800;9.530;2023-03-09T12:05:14;4.47;;;1.33;;
2259;SDS011;333;48.800;9.530;2023-03-09T12:07:44;3.10;;;1.50;;
2259;SDS011;333;48.800;9.530;2023-03-09T12:10:15;2.60;;;1.37;;
2259;SDS011;333;48.800;9.530;2023-03-09T12:12:45;2.07;;;1.00;;
2259;SDS011;333;48.800;9.530;2023-03-09T12:15:16;2.70;;;0.83;;
2259;SDS011;333;48.800;9.530;2023-03-09T12:17:47;1.70;;;0.90;;
2259;SDS011;333;48.800;9.530;2023-03-09T12:20:19;2.70;;;1.40;;
2259;SDS011;333;48.800;9.530;2023-03-09T12:22:47;3.40;;;1.37;;
2259;SDS011;333;48.800;9.530;2023-03-09T12:25:15;1.40;;;0.90;;
2259;SDS011;333;48.800;9.530;2023-03-09T12:27:47;1.53;;;1.00;;
2259;SDS011;333;48.800;9.530;2023-03-09T12:30:20;6.50;;;1.30;;
2259;SDS011;333;48.800;9.530;2023-03-09T12:32:51;2.20;;;0.93;;
2259;SDS011;333;48.800;9.530;2023-03-09T12:40:52;0.73;;;0.70;;
2259;SDS011;333;48.800;9.530;2023-03-09T12:43:33;1.37;;;0.80;;
2259;SDS011;333;48.800;9.530;2023-03-09T12:48:57;1.40;;;1.30;;
2259;SDS011;333;48.800;9.530;2023-03-09T12:51:25;2.10;;;0.80;;
2259;SDS011;333;48.800;9.530;2023-03-09T12:53:58;2.40;;;0.80;;
2259;SDS011;333;48.800;9.530;2023-03-09T12:56:26;2.40;;;0.90;;
2259;SDS011;333;48.800;9.530;2023-03-09T12:58:54;2.30;;;0.83;;
2259;SDS011;333;48.800;9.530;2023-03-09T13:01:31;2.50;;;1.00;;
2259;SDS011;333;48.800;9.530;2023-03-09T13:04:10;3.27;;;1.13;;
2259;SDS011;333;48.800;9.530;2023-03-09T13:06:39;2.63;;;1.23;;
2259;SDS011;333;48.800;9.530;2023-03-09T13:09:15;5.80;;;1.10;;
2259;SDS011;333;48.800;9.530;2023-03-09T13:11:45;2.73;;;1.40;;
2259;SDS011;333;48.800;9.530;2023-03-09T13:14:13;4.07;;;1.27;;
2259;SDS011;333;48.800;9.530;2023-03-09T13:16:50;3.33;;;1.13;;
2259;SDS011;333;48.800;9.530;2023-03-09T13:22:26;4.67;;;0.87;;
2259;SDS011;333;48.800;9.530;2023-03-09T13:27:43;3.23;;;1.60;;
2259;SDS011;333;48.800;9.530;2023-03-09T13:30:15;3.33;;;1.07;;
2259;SDS011;333;48.800;9.530;2023-03-09T13:32:47;1.90;;;1.37;;
2259;SDS011;333;48.800;9.530;2023-03-09T13:35:16;1.47;;;0.83;;
2259;SDS011;333;48.800;9.530;2023-03-09T13:37:46;2.67;;;1.40;;
2259;SDS011;333;48.800;9.530;2023-03-09T13:40:24;2.87;;;1.03;;
2259;SDS011;333;48.800;9.530;2023-03-09T13:42:52;3.03;;;1.30;;
2259;SDS011;333;48.800;9.530;2023-03-09T13:45:20;2.00;;;1.00;;
2259;SDS011;333;48.800;9.530;2023-03-09T13:47:50;3.97;;;1.37;;
2259;SDS011;333;48.800;9.530;2023-03-09T13:50:18;2.33;;;1.70;;
2259;SDS011;333;48.800;9.530;2023-03-09T13:52:58;14.67;;;7.47;;
2259;SDS011;333;48.800;9.530;2023-03-09T13:55:27;7.97;;;4.80;;
2259;SDS011;333;48.800;9.530;2023-03-09T13:57:54;5.27;;;3.37;;
2259;SDS011;333;48.800;9.530;2023-03-09T14:00:32;3.37;;;1.60;;
2259;SDS011;333;48.800;9.530;2023-03-09T14:02:59;3.30;;;1.07;;
2259;SDS011;333;48.800;9.530;2023-03-09T14:05:26;2.60;;;0.90;;
2259;SDS011;333;48.800;9.530;2023-03-09T14:07:54;1.23;;;0.90;;
2259;SDS011;333;48.800;9.530;2023-03-09T14:10:24;1.83;;;1.30;;
2259;SDS011;333;48.800;9.530;2023-03-09T14:12:52;2.80;;;1.17;;
2259;SDS011;333;48.800;9.530;2023-03-09T14:15:20;2.70;;;1.00;;
2259;SDS011;333;48.800;9.530;2023-03-09T14:17:48;6.37;;;1.07;;
2259;SDS011;333;48.800;9.530;2023-03-09T14:20:17;1.57;;;0.80;;
2259;SDS011;333;48.800;9.530;2023-03-09T14:22:44;3.03;;;1.00;;
2259;SDS011;333;48.800;9.530;2023-03-09T14:25:28;2.10;;;0.90;;
2259;SDS011;333;48.800;9.530;2023-03-09T14:27:56;2.63;;;0.80;;
2259;SDS011;333;48.800;9.530;2023-03-09T14:30:30;2.50;;;1.00;;
2259;SDS011;333;48.800;9.530;2023-03-09T14:33:00;4.07;;;0.90;;
2259;SDS011;333;48.800;9.530;2023-03-09T14:35:29;1.73;;;0.80;;
2259;SDS011;333;48.800;9.530;2023-03-09T14:37:57;2.40;;;0.70;;
2259;SDS011;333;48.800;9.530;2023-03-09T14:40:25;2.40;;;1.10;;
2259;SDS011;333;48.800;9.530;2023-03-09T14:42:54;1.43;;;1.10;;
2259;SDS011;333;48.800;9.530;2023-03-09T14:45:22;1.87;;;1.37;;
2259;SDS011;333;48.800;9.530;2023-03-09T14:47:50;2.00;;;1.37;;
2259;SDS011;333;48.800;9.530;2023-03-09T14:50:23;2.47;;;1.10;;
2259;SDS011;333;48.800;9.530;2023-03-09T14:52:50;4.33;;;1.90;;
2259;SDS011;333;48.800;9.530;2023-03-09T14:55:18;1.70;;;1.47;;
2259;SDS011;333;48.800;9.530;2023-03-09T14:57:46;3.03;;;1.30;;
2259;SDS011;333;48.800;9.530;2023-03-09T15:00:16;0.73;;;0.73;;
2259;SDS011;333;48.800;9.530;2023-03-09T15:02:44;2.20;;;1.13;;
2259;SDS011;333;48.800;9.530;2023-03-09T15:05:12;1.90;;;1.57;;
2259;SDS011;333;48.800;9.530;2023-03-09T15:07:39;1.73;;;1.63;;
2259;SDS011;333;48.800;9.530;2023-03-09T15:10:07;3.60;;;1.50;;
2259;SDS011;333;48.800;9.530;2023-03-09T15:12:34;2.70;;;1.93;;
2259;SDS011;333;48.800;9.530;2023-03-09T15:15:02;2.20;;;1.10;;
2259;SDS011;333;48.800;9.530;2023-03-09T15:17:30;4.00;;;1.30;;
2259;SDS011;333;48.800;9.530;2023-03-09T15:19:57;1.30;;;1.00;;
2259;SDS011;333;48.800;9.530;2023-03-09T15:22:24;5.13;;;1.40;;
2259;SDS011;333;48.800;9.530;2023-03-09T15:24:52;4.30;;;1.53;;
2259;SDS011;333;48.800;9.530;2023-03-09T15:27:19;4.23;;;1.23;;
2259;SDS011;333;48.800;9.530;2023-03-09T15:29:46;1.03;;;0.93;;
2259;SDS011;333;48.800;9.530;2023-03-09T15:32:13;4.50;;;1.37;;
2259;SDS011;333;48.800;9.530;2023-03-09T15:34:42;3.80;;;1.10;;
2259;SDS011;333;48.800;9.530;2023-03-09T15:37:09;2.17;;;1.30;;
2259;SDS011;333;48.800;9.530;2023-03-09T15:39:36;3.40;;;1.77;;
2259;SDS011;333;48.800;9.530;2023-03-09T15:42:03;2.73;;;1.07;;
2259;SDS011;333;48.800;9.530;2023-03-09T15:44:32;2.17;;;1.27;;
2259;SDS011;333;48.800;9.530;2023-03-09T15:46:59;2.40;;;1.00;;
2259;SDS011;333;48.800;9.530;2023-03-09T15:49:27;4.43;;;0.93;;
2259;SDS011;333;48.800;9.530;2023-03-09T15:51:55;3.50;;;1.20;;
2259;SDS011;333;48.800;9.530;2023-03-09T15:54:22;1.43;;;1.20;;
2259;SDS011;333;48.800;9.530;2023-03-09T15:56:50;5.37;;;1.77;;
2259;SDS011;333;48.800;9.530;2023-03-09T15:59:17;2.00;;;1.03;;